sensor_id;sensor_type;location;lat;lon;timestamp;P1;durP1;ratioP1;P2;durP2;ratioP2
47659;SDS011;33403;43.608;1.458;2023-01-19T00:00:37;4.60;;;3.37;;
47659;SDS011;33403;43.608;1.458;2023-01-19T00:03:03;4.10;;;3.50;;
47659;SDS011;33403;43.608;1.458;2023-01-19T00:05:29;4.23;;;3.07;;
47659;SDS011;33403;43.608;1.458;2023-01-19T00:07:57;3.93;;;3.30;;
47659;SDS011;33403;43.608;1.458;2023-01-19T00:10:38;4.77;;;2.90;;
47659;SDS011;33403;43.608;1.458;2023-01-19T00:13:05;3.13;;;2.63;;
47659;SDS011;33403;43.608;1.458;2023-01-19T00:15:31;3.40;;;3.10;;
47659;SDS011;33403;43.608;1.458;2023-01-19T00:17:57;4.30;;;3.40;;
47659;SDS011;33403;43.608;1.458;2023-01-19T00:20:23;3.57;;;3.10;;
47659;SDS011;33403;43.608;1.458;2023-01-19T00:22:49;4.97;;;3.17;;
47659;SDS011;33403;43.608;1.458;2023-01-19T00:25:16;3.90;;;3.07;;
47659;SDS011;33403;43.608;1.458;2023-01-19T00:27:42;4.30;;;3.40;;
47659;SDS011;33403;43.608;1.458;2023-01-19T00:30:13;4.60;;;3.27;;
47659;SDS011;33403;43.608;1.458;2023-01-19T00:32:39;4.13;;;3.13;;
47659;SDS011;33403;43.608;1.458;2023-01-19T00:35:05;4.63;;;3.30;;
47659;SDS011;33403;43.608;1.458;2023-01-19T00:37:31;4.60;;;2.90;;
47659;SDS011;33403;43.608;1.458;2023-01-19T00:39:57;3.60;;;3.00;;
47659;SDS011;33403;43.608;1.458;2023-01-19T00:42:23;5.03;;;3.20;;
47659;SDS011;33403;43.608;1.458;2023-01-19T00:45:06;4.70;;;3.03;;
47659;SDS011;33403;43.608;1.458;2023-01-19T00:47:32;5.10;;;3.10;;
47659;SDS011;33403;43.608;1.458;2023-01-19T00:49:58;3.97;;;2.97;;
47659;SDS011;33403;43.608;1.458;2023-01-19T00:52:24;3.90;;;3.10;;
47659;SDS011;33403;43.608;1.458;2023-01-19T00:54:50;4.60;;;3.20;;
47659;SDS011;33403;43.608;1.458;2023-01-19T00:57:16;4.33;;;3.43;;
47659;SDS011;33403;43.608;1.458;2023-01-19T00:59:43;3.77;;;3.17;;
47659;SDS011;33403;43.608;1.458;2023-01-19T01:02:09;3.90;;;3.33;;
47659;SDS011;33403;43.608;1.458;2023-01-19T01:04:36;5.30;;;3.43;;
47659;SDS011;33403;43.608;1.458;2023-01-19T01:07:02;4.83;;;3.27;;
47659;SDS011;33403;43.608;1.458;2023-01-19T01:09:29;4.60;;;3.10;;
47659;SDS011;33403;43.608;1.458;2023-01-19T01:11:55;3.43;;;2.90;;
47659;SDS011;33403;43.608;1.458;2023-01-19T01:14:21;4.37;;;3.17;;
47659;SDS011;33403;43.608;1.458;2023-01-19T01:16:48;5.07;;;3.00;;
47659;SDS011;33403;43.608;1.458;2023-01-19T01:19:14;5.27;;;2.90;;
47659;SDS011;33403;43.608;1.458;2023-01-19T01:21:40;4.10;;;2.70;;
47659;SDS011;33403;43.608;1.458;2023-01-19T01:24:06;3.40;;;2.90;;
47659;SDS011;33403;43.608;1.458;2023-01-19T01:26:32;2.77;;;2.40;;
47659;SDS011;33403;43.608;1.458;2023-01-19T01:28:58;3.60;;;2.40;;
47659;SDS011;33403;43.608;1.458;2023-01-19T01:31:24;3.43;;;2.33;;
47659;SDS011;33403;43.608;1.458;2023-01-19T01:33:51;3.83;;;2.50;;
47659;SDS011;33403;43.608;1.458;2023-01-19T01:36:17;2.57;;;2.13;;
47659;SDS011;33403;43.608;1.458;2023-01-19T01:38:43;3.10;;;2.40;;
47659;SDS011;33403;43.608;1.458;2023-01-19T01:41:09;3.33;;;2.50;;
47659;SDS011;33403;43.608;1.458;2023-01-19T01:46:07;3.40;;;2.20;;
47659;SDS011;33403;43.608;1.458;2023-01-19T01:48:33;5.90;;;2.60;;
47659;SDS011;33403;43.608;1.458;2023-01-19T01:51:08;3.80;;;2.20;;
47659;SDS011;33403;43.608;1.458;2023-01-19T01:56:48;4.90;;;2.30;;
47659;SDS011;33403;43.608;1.458;2023-01-19T01:59:18;4.70;;;2.47;;
47659;SDS011;33403;43.608;1.458;2023-01-19T02:01:54;2.43;;;2.20;;
47659;SDS011;33403;43.608;1.458;2023-01-19T02:04:39;2.67;;;2.20;;
47659;SDS011;33403;43.608;1.458;2023-01-19T02:07:10;3.67;;;2.10;;
47659;SDS011;33403;43.608;1.458;2023-01-19T02:09:55;3.40;;;2.50;;
47659;SDS011;33403;43.608;1.458;2023-01-19T02:12:40;4.00;;;2.30;;
47659;SDS011;33403;43.608;1.458;2023-01-19T02:15:24;2.57;;;2.00;;
47659;SDS011;33403;43.608;1.458;2023-01-19T02:17:50;3.23;;;2.00;;
47659;SDS011;33403;43.608;1.458;2023-01-19T02:20:17;2.40;;;1.93;;
47659;SDS011;33403;43.608;1.458;2023-01-19T02:22:45;2.63;;;2.10;;
47659;SDS011;33403;43.608;1.458;2023-01-19T02:25:11;4.60;;;2.30;;
47659;SDS011;33403;43.608;1.458;2023-01-19T02:27:38;3.40;;;2.17;;
47659;SDS011;33403;43.608;1.458;2023-01-19T02:30:04;2.87;;;1.90;;
47659;SDS011;33403;43.608;1.458;2023-01-19T02:32:31;2.87;;;1.90;;
47659;SDS011;33403;43.608;1.458;2023-01-19T02:34:57;3.13;;;1.90;;
47659;SDS011;33403;43.608;1.458;2023-01-19T02:37:23;2.67;;;2.10;;
47659;SDS011;33403;43.608;1.458;2023-01-19T02:39:51;2.60;;;1.90;;
47659;SDS011;33403;43.608;1.458;2023-01-19T02:42:20;4.83;;;1.90;;
47659;SDS011;33403;43.608;1.458;2023-01-19T02:44:48;3.90;;;1.77;;
47659;SDS011;33403;43.608;1.458;2023-01-19T02:47:14;1.60;;;1.50;;
47659;SDS011;33403;43.608;1.458;2023-01-19T02:49:41;2.13;;;1.70;;
47659;SDS011;33403;43.608;1.458;2023-01-19T02:52:07;1.50;;;1.40;;
47659;SDS011;33403;43.608;1.458;2023-01-19T03:00:07;2.77;;;1.60;;
47659;SDS011;33403;43.608;1.458;2023-01-19T03:02:46;3.10;;;1.60;;
47659;SDS011;33403;43.608;1.458;2023-01-19T03:05:17;2.13;;;1.43;;
47659;SDS011;33403;43.608;1.458;2023-01-19T03:13:13;1.73;;;1.60;;
47659;SDS011;33403;43.608;1.458;2023-01-19T03:15:48;5.20;;;1.70;;
47659;SDS011;33403;43.608;1.458;2023-01-19T03:18:16;3.67;;;1.40;;
47659;SDS011;33403;43.608;1.458;2023-01-19T03:20:43;2.80;;;1.50;;
47659;SDS011;33403;43.608;1.458;2023-01-19T03:23:10;1.87;;;1.60;;
47659;SDS011;33403;43.608;1.458;2023-01-19T03:25:38;2.00;;;1.40;;
47659;SDS011;33403;43.608;1.458;2023-01-19T03:28:05;2.03;;;1.30;;
47659;SDS011;33403;43.608;1.458;2023-01-19T03:30:33;1.40;;;1.30;;
47659;SDS011;33403;43.608;1.458;2023-01-19T03:33:03;1.87;;;1.40;;
47659;SDS011;33403;43.608;1.458;2023-01-19T03:35:31;1.83;;;1.40;;
47659;SDS011;33403;43.608;1.458;2023-01-19T03:37:59;1.90;;;1.40;;
47659;SDS011;33403;43.608;1.458;2023-01-19T03:40:29;1.67;;;1.57;;
47659;SDS011;33403;43.608;1.458;2023-01-19T03:42:55;1.70;;;1.60;;
47659;SDS011;33403;43.608;1.458;2023-01-19T03:45:22;2.40;;;1.60;;
47659;SDS011;33403;43.608;1.458;2023-01-19T03:47:48;1.50;;;1.40;;
47659;SDS011;33403;43.608;1.458;2023-01-19T03:50:19;2.47;;;1.60;;
47659;SDS011;33403;43.608;1.458;2023-01-19T03:52:58;1.67;;;1.40;;
47659;SDS011;33403;43.608;1.458;2023-01-19T03:55:24;3.47;;;1.70;;
47659;SDS011;33403;43.608;1.458;2023-01-19T03:57:50;1.50;;;1.40;;
47659;SDS011;33403;43.608;1.458;2023-01-19T04:00:17;1.50;;;1.40;;
47659;SDS011;33403;43.608;1.458;2023-01-19T04:02:43;2.37;;;1.47;;
47659;SDS011;33403;43.608;1.458;2023-01-19T04:05:09;1.60;;;1.50;;
47659;SDS011;33403;43.608;1.458;2023-01-19T04:07:35;1.60;;;1.50;;
47659;SDS011;33403;43.608;1.458;2023-01-19T04:10:01;1.57;;;1.47;;
47659;SDS011;33403;43.608;1.458;2023-01-19T04:12:27;1.77;;;1.63;;
47659;SDS011;33403;43.608;1.458;2023-01-19T04:14:53;2.53;;;1.70;;
47659;SDS011;33403;43.608;1.458;2023-01-19T04:17:19;2.47;;;1.70;;
47659;SDS011;33403;43.608;1.458;2023-01-19T04:19:45;1.50;;;1.40;;
47659;SDS011;33403;43.608;1.458;2023-01-19T04:22:11;1.43;;;1.33;;
47659;SDS011;33403;43.608;1.458;2023-01-19T04:24:37;1.97;;;1.50;;
47659;SDS011;33403;43.608;1.458;2023-01-19T04:27:03;1.77;;;1.60;;
47659;SDS011;33403;43.608;1.458;2023-01-19T04:29:29;1.87;;;1.40;;
47659;SDS011;33403;43.608;1.458;2023-01-19T04:31:55;2.53;;;1.57;;
47659;SDS011;33403;43.608;1.458;2023-01-19T04:34:21;2.50;;;1.40;;
47659;SDS011;33403;43.608;1.458;2023-01-19T04:36:47;1.60;;;1.50;;
47659;SDS011;33403;43.608;1.458;2023-01-19T04:39:15;1.60;;;1.50;;
47659;SDS011;33403;43.608;1.458;2023-01-19T04:41:41;3.00;;;1.70;;
47659;SDS011;33403;43.608;1.458;2023-01-19T04:44:07;2.63;;;1.60;;
47659;SDS011;33403;43.608;1.458;2023-01-19T04:46:34;2.37;;;1.60;;
47659;SDS011;33403;43.608;1.458;2023-01-19T04:49:00;1.67;;;1.50;;
47659;SDS011;33403;43.608;1.458;2023-01-19T04:51:26;1.60;;;1.50;;
47659;SDS011;33403;43.608;1.458;2023-01-19T04:53:52;2.57;;;1.70;;
47659;SDS011;33403;43.608;1.458;2023-01-19T04:56:19;3.40;;;1.80;;
47659;SDS011;33403;43.608;1.458;2023-01-19T04:58:45;1.87;;;1.70;;
47659;SDS011;33403;43.608;1.458;2023-01-19T05:01:11;1.90;;;1.70;;
47659;SDS011;33403;43.608;1.458;2023-01-19T05:03:37;1.70;;;1.60;;
47659;SDS011;33403;43.608;1.458;2023-01-19T05:06:04;2.87;;;1.70;;
47659;SDS011;33403;43.608;1.458;2023-01-19T05:08:30;2.30;;;1.70;;
47659;SDS011;33403;43.608;1.458;2023-01-19T05:10:56;2.30;;;1.70;;
47659;SDS011;33403;43.608;1.458;2023-01-19T05:13:23;3.00;;;1.87;;
47659;SDS011;33403;43.608;1.458;2023-01-19T05:15:49;2.73;;;1.50;;
47659;SDS011;33403;43.608;1.458;2023-01-19T05:18:16;1.90;;;1.60;;
47659;SDS011;33403;43.608;1.458;2023-01-19T05:20:42;2.03;;;1.90;;
47659;SDS011;33403;43.608;1.458;2023-01-19T05:23:08;2.00;;;1.90;;
47659;SDS011;33403;43.608;1.458;2023-01-19T05:25:34;3.13;;;2.00;;
47659;SDS011;33403;43.608;1.458;2023-01-19T05:28:00;2.07;;;1.80;;
47659;SDS011;33403;43.608;1.458;2023-01-19T05:30:27;3.03;;;1.83;;
47659;SDS011;33403;43.608;1.458;2023-01-19T05:32:54;3.03;;;2.00;;
47659;SDS011;33403;43.608;1.458;2023-01-19T05:35:20;1.90;;;1.80;;
47659;SDS011;33403;43.608;1.458;2023-01-19T05:37:46;2.03;;;1.80;;
47659;SDS011;33403;43.608;1.458;2023-01-19T05:40:12;1.90;;;1.70;;
47659;SDS011;33403;43.608;1.458;2023-01-19T05:42:38;3.43;;;2.20;;
47659;SDS011;33403;43.608;1.458;2023-01-19T05:45:04;2.00;;;1.73;;
47659;SDS011;33403;43.608;1.458;2023-01-19T05:47:30;2.57;;;1.60;;
47659;SDS011;33403;43.608;1.458;2023-01-19T05:49:56;2.67;;;1.77;;
47659;SDS011;33403;43.608;1.458;2023-01-19T05:52:22;1.80;;;1.50;;
47659;SDS011;33403;43.608;1.458;2023-01-19T05:54:49;2.70;;;1.83;;
47659;SDS011;33403;43.608;1.458;2023-01-19T05:57:15;3.00;;;1.80;;
47659;SDS011;33403;43.608;1.458;2023-01-19T05:59:41;2.43;;;2.00;;
47659;SDS011;33403;43.608;1.458;2023-01-19T06:02:08;1.80;;;1.70;;
47659;SDS011;33403;43.608;1.458;2023-01-19T06:04:34;1.90;;;1.80;;
47659;SDS011;33403;43.608;1.458;2023-01-19T06:07:00;1.87;;;1.60;;
47659;SDS011;33403;43.608;1.458;2023-01-19T06:09:27;1.70;;;1.60;;
47659;SDS011;33403;43.608;1.458;2023-01-19T06:11:53;2.10;;;1.90;;
47659;SDS011;33403;43.608;1.458;2023-01-19T06:14:21;2.23;;;2.00;;
47659;SDS011;33403;43.608;1.458;2023-01-19T06:16:47;1.83;;;1.73;;
47659;SDS011;33403;43.608;1.458;2023-01-19T06:19:13;2.10;;;1.87;;
47659;SDS011;33403;43.608;1.458;2023-01-19T06:21:39;2.27;;;2.10;;
47659;SDS011;33403;43.608;1.458;2023-01-19T06:24:05;2.53;;;2.33;;
47659;SDS011;33403;43.608;1.458;2023-01-19T06:26:31;2.10;;;2.00;;
47659;SDS011;33403;43.608;1.458;2023-01-19T06:28:57;2.47;;;2.27;;
47659;SDS011;33403;43.608;1.458;2023-01-19T06:31:23;2.80;;;2.27;;
47659;SDS011;33403;43.608;1.458;2023-01-19T06:33:49;2.60;;;2.40;;
47659;SDS011;33403;43.608;1.458;2023-01-19T06:36:15;2.33;;;2.20;;
47659;SDS011;33403;43.608;1.458;2023-01-19T06:38:41;3.27;;;2.30;;
47659;SDS011;33403;43.608;1.458;2023-01-19T06:41:07;2.70;;;2.30;;
47659;SDS011;33403;43.608;1.458;2023-01-19T06:43:33;2.40;;;2.20;;
47659;SDS011;33403;43.608;1.458;2023-01-19T06:46:00;2.27;;;2.10;;
47659;SDS011;33403;43.608;1.458;2023-01-19T06:48:26;2.23;;;1.97;;
47659;SDS011;33403;43.608;1.458;2023-01-19T06:50:52;2.53;;;2.00;;
47659;SDS011;33403;43.608;1.458;2023-01-19T06:53:19;2.53;;;1.80;;
47659;SDS011;33403;43.608;1.458;2023-01-19T06:55:46;1.80;;;1.70;;
47659;SDS011;33403;43.608;1.458;2023-01-19T06:58:12;2.00;;;1.80;;
47659;SDS011;33403;43.608;1.458;2023-01-19T07:00:38;2.20;;;1.80;;
47659;SDS011;33403;43.608;1.458;2023-01-19T07:03:05;1.70;;;1.60;;
47659;SDS011;33403;43.608;1.458;2023-01-19T07:05:33;1.93;;;1.70;;
47659;SDS011;33403;43.608;1.458;2023-01-19T07:07:59;2.10;;;1.90;;
47659;SDS011;33403;43.608;1.458;2023-01-19T07:10:25;2.20;;;2.00;;
47659;SDS011;33403;43.608;1.458;2023-01-19T07:12:51;2.33;;;2.13;;
47659;SDS011;33403;43.608;1.458;2023-01-19T07:15:18;2.60;;;2.40;;
47659;SDS011;33403;43.608;1.458;2023-01-19T07:17:46;3.60;;;2.50;;
47659;SDS011;33403;43.608;1.458;2023-01-19T07:20:12;2.40;;;2.20;;
47659;SDS011;33403;43.608;1.458;2023-01-19T07:22:39;3.10;;;2.30;;
47659;SDS011;33403;43.608;1.458;2023-01-19T07:25:06;3.17;;;2.40;;
47659;SDS011;33403;43.608;1.458;2023-01-19T07:27:32;3.17;;;2.20;;
47659;SDS011;33403;43.608;1.458;2023-01-19T07:29:58;3.13;;;2.60;;
47659;SDS011;33403;43.608;1.458;2023-01-19T07:32:25;4.40;;;2.30;;
47659;SDS011;33403;43.608;1.458;2023-01-19T07:34:51;2.33;;;2.13;;
47659;SDS011;33403;43.608;1.458;2023-01-19T07:37:17;2.73;;;2.40;;
47659;SDS011;33403;43.608;1.458;2023-01-19T07:39:43;2.17;;;1.97;;
47659;SDS011;33403;43.608;1.458;2023-01-19T07:42:09;3.67;;;2.20;;
47659;SDS011;33403;43.608;1.458;2023-01-19T07:44:35;2.30;;;2.10;;
47659;SDS011;33403;43.608;1.458;2023-01-19T07:47:01;2.37;;;2.20;;
47659;SDS011;33403;43.608;1.458;2023-01-19T07:49:28;2.10;;;1.90;;
47659;SDS011;33403;43.608;1.458;2023-01-19T07:51:54;2.30;;;2.03;;
47659;SDS011;33403;43.608;1.458;2023-01-19T07:54:20;6.63;;;2.47;;
47659;SDS011;33403;43.608;1.458;2023-01-19T07:56:46;3.40;;;2.50;;
47659;SDS011;33403;43.608;1.458;2023-01-19T07:59:12;2.37;;;2.17;;
47659;SDS011;33403;43.608;1.458;2023-01-19T08:01:38;3.03;;;2.37;;
47659;SDS011;33403;43.608;1.458;2023-01-19T08:04:04;3.27;;;2.27;;
47659;SDS011;33403;43.608;1.458;2023-01-19T08:06:34;4.10;;;2.23;;
47659;SDS011;33403;43.608;1.458;2023-01-19T08:09:02;3.27;;;2.00;;
47659;SDS011;33403;43.608;1.458;2023-01-19T08:11:29;3.10;;;2.10;;
47659;SDS011;33403;43.608;1.458;2023-01-19T08:13:56;2.87;;;2.10;;
47659;SDS011;33403;43.608;1.458;2023-01-19T08:16:22;2.40;;;1.97;;
47659;SDS011;33403;43.608;1.458;2023-01-19T08:18:48;2.00;;;1.80;;
47659;SDS011;33403;43.608;1.458;2023-01-19T08:21:14;2.23;;;1.73;;
47659;SDS011;33403;43.608;1.458;2023-01-19T08:23:41;2.13;;;1.93;;
47659;SDS011;33403;43.608;1.458;2023-01-19T08:29:05;2.83;;;1.77;;
47659;SDS011;33403;43.608;1.458;2023-01-19T08:31:31;1.83;;;1.73;;
47659;SDS011;33403;43.608;1.458;2023-01-19T08:33:57;1.97;;;1.80;;
47659;SDS011;33403;43.608;1.458;2023-01-19T08:36:23;2.50;;;1.87;;
47659;SDS011;33403;43.608;1.458;2023-01-19T08:38:49;4.07;;;2.00;;
47659;SDS011;33403;43.608;1.458;2023-01-19T08:41:16;1.80;;;1.70;;
47659;SDS011;33403;43.608;1.458;2023-01-19T08:43:42;2.80;;;1.87;;
47659;SDS011;33403;43.608;1.458;2023-01-19T08:46:09;2.10;;;1.90;;
47659;SDS011;33403;43.608;1.458;2023-01-19T08:48:35;2.63;;;2.10;;
47659;SDS011;33403;43.608;1.458;2023-01-19T08:51:02;2.30;;;2.00;;
47659;SDS011;33403;43.608;1.458;2023-01-19T08:53:28;3.70;;;1.80;;
47659;SDS011;33403;43.608;1.458;2023-01-19T08:55:57;3.40;;;2.10;;
47659;SDS011;33403;43.608;1.458;2023-01-19T08:58:26;2.13;;;1.90;;
47659;SDS011;33403;43.608;1.458;2023-01-19T09:00:52;2.23;;;1.60;;
47659;SDS011;33403;43.608;1.458;2023-01-19T09:03:19;3.07;;;2.10;;
47659;SDS011;33403;43.608;1.458;2023-01-19T09:05:46;2.37;;;2.00;;
47659;SDS011;33403;43.608;1.458;2023-01-19T09:08:13;2.50;;;2.30;;
47659;SDS011;33403;43.608;1.458;2023-01-19T09:10:43;4.57;;;2.03;;
47659;SDS011;33403;43.608;1.458;2023-01-19T09:13:12;2.03;;;1.77;;
47659;SDS011;33403;43.608;1.458;2023-01-19T09:15:38;3.07;;;1.93;;
47659;SDS011;33403;43.608;1.458;2023-01-19T09:18:05;3.70;;;2.37;;
47659;SDS011;33403;43.608;1.458;2023-01-19T09:20:32;4.70;;;2.50;;
47659;SDS011;33403;43.608;1.458;2023-01-19T09:23:00;3.23;;;2.03;;
47659;SDS011;33403;43.608;1.458;2023-01-19T09:25:26;5.67;;;2.30;;
47659;SDS011;33403;43.608;1.458;2023-01-19T09:27:52;3.47;;;2.20;;
47659;SDS011;33403;43.608;1.458;2023-01-19T09:30:20;4.13;;;2.20;;
47659;SDS011;33403;43.608;1.458;2023-01-19T09:32:46;8.03;;;3.03;;
47659;SDS011;33403;43.608;1.458;2023-01-19T09:35:12;8.03;;;3.03;;
47659;SDS011;33403;43.608;1.458;2023-01-19T09:37:38;7.20;;;3.13;;
47659;SDS011;33403;43.608;1.458;2023-01-19T09:40:04;4.13;;;2.50;;
47659;SDS011;33403;43.608;1.458;2023-01-19T09:42:44;3.37;;;2.23;;
47659;SDS011;33403;43.608;1.458;2023-01-19T09:45:14;3.03;;;2.20;;
47659;SDS011;33403;43.608;1.458;2023-01-19T09:47:41;5.40;;;2.53;;
47659;SDS011;33403;43.608;1.458;2023-01-19T09:50:23;3.97;;;2.30;;
47659;SDS011;33403;43.608;1.458;2023-01-19T09:52:54;2.10;;;1.90;;
47659;SDS011;33403;43.608;1.458;2023-01-19T09:55:24;3.07;;;1.90;;
47659;SDS011;33403;43.608;1.458;2023-01-19T09:57:50;3.60;;;1.90;;
47659;SDS011;33403;43.608;1.458;2023-01-19T10:00:16;2.93;;;2.03;;
47659;SDS011;33403;43.608;1.458;2023-01-19T10:02:43;2.93;;;2.03;;
47659;SDS011;33403;43.608;1.458;2023-01-19T10:08:08;2.87;;;1.63;;
47659;SDS011;33403;43.608;1.458;2023-01-19T10:10:36;2.17;;;1.70;;
47659;SDS011;33403;43.608;1.458;2023-01-19T10:18:30;4.20;;;2.00;;
47659;SDS011;33403;43.608;1.458;2023-01-19T10:26:07;4.00;;;1.70;;
47659;SDS011;33403;43.608;1.458;2023-01-19T10:28:33;6.47;;;2.30;;
47659;SDS011;33403;43.608;1.458;2023-01-19T10:31:01;4.53;;;1.70;;
47659;SDS011;33403;43.608;1.458;2023-01-19T10:33:28;2.60;;;1.83;;
47659;SDS011;33403;43.608;1.458;2023-01-19T10:35:56;2.33;;;1.43;;
47659;SDS011;33403;43.608;1.458;2023-01-19T10:38:22;2.53;;;1.60;;
47659;SDS011;33403;43.608;1.458;2023-01-19T10:46:01;3.33;;;2.07;;
47659;SDS011;33403;43.608;1.458;2023-01-19T10:48:35;3.53;;;2.00;;
47659;SDS011;33403;43.608;1.458;2023-01-19T10:51:02;6.57;;;2.20;;
47659;SDS011;33403;43.608;1.458;2023-01-19T10:53:29;5.73;;;2.10;;
47659;SDS011;33403;43.608;1.458;2023-01-19T10:56:12;3.47;;;1.90;;
47659;SDS011;33403;43.608;1.458;2023-01-19T10:58:38;3.00;;;1.70;;
47659;SDS011;33403;43.608;1.458;2023-01-19T11:01:15;2.87;;;1.70;;
47659;SDS011;33403;43.608;1.458;2023-01-19T11:03:41;1.93;;;1.50;;
47659;SDS011;33403;43.608;1.458;2023-01-19T11:08:44;3.10;;;1.87;;
47659;SDS011;33403;43.608;1.458;2023-01-19T11:11:10;3.33;;;2.07;;
47659;SDS011;33403;43.608;1.458;2023-01-19T11:13:40;3.07;;;1.90;;
47659;SDS011;33403;43.608;1.458;2023-01-19T11:16:11;4.17;;;2.03;;
47659;SDS011;33403;43.608;1.458;2023-01-19T11:18:39;4.93;;;2.40;;
47659;SDS011;33403;43.608;1.458;2023-01-19T11:21:06;4.03;;;1.87;;
47659;SDS011;33403;43.608;1.458;2023-01-19T11:23:40;3.20;;;1.90;;
47659;SDS011;33403;43.608;1.458;2023-01-19T11:26:07;5.23;;;2.03;;
47659;SDS011;33403;43.608;1.458;2023-01-19T11:28:35;4.63;;;2.57;;
47659;SDS011;33403;43.608;1.458;2023-01-19T11:33:41;6.03;;;1.90;;
47659;SDS011;33403;43.608;1.458;2023-01-19T11:36:18;3.20;;;1.83;;
47659;SDS011;33403;43.608;1.458;2023-01-19T11:38:46;3.53;;;1.80;;
47659;SDS011;33403;43.608;1.458;2023-01-19T11:41:18;3.43;;;1.83;;
47659;SDS011;33403;43.608;1.458;2023-01-19T11:43:46;6.40;;;2.27;;
47659;SDS011;33403;43.608;1.458;2023-01-19T11:46:13;3.77;;;1.80;;
47659;SDS011;33403;43.608;1.458;2023-01-19T11:48:51;4.03;;;2.00;;
47659;SDS011;33403;43.608;1.458;2023-01-19T11:51:26;2.50;;;1.70;;
47659;SDS011;33403;43.608;1.458;2023-01-19T11:53:54;5.20;;;1.90;;
47659;SDS011;33403;43.608;1.458;2023-01-19T11:56:21;3.00;;;1.90;;
47659;SDS011;33403;43.608;1.458;2023-01-19T11:58:48;3.47;;;1.70;;
47659;SDS011;33403;43.608;1.458;2023-01-19T12:04:02;5.43;;;2.20;;
47659;SDS011;33403;43.608;1.458;2023-01-19T12:06:31;3.43;;;1.77;;
47659;SDS011;33403;43.608;1.458;2023-01-19T12:09:02;4.27;;;1.80;;
47659;SDS011;33403;43.608;1.458;2023-01-19T12:11:31;3.37;;;1.63;;
47659;SDS011;33403;43.608;1.458;2023-01-19T12:13:58;2.77;;;1.70;;
47659;SDS011;33403;43.608;1.458;2023-01-19T12:16:26;5.57;;;2.03;;
47659;SDS011;33403;43.608;1.458;2023-01-19T12:18:55;3.77;;;1.63;;
47659;SDS011;33403;43.608;1.458;2023-01-19T12:21:22;5.57;;;2.03;;
47659;SDS011;33403;43.608;1.458;2023-01-19T12:29:32;4.27;;;2.00;;
47659;SDS011;33403;43.608;1.458;2023-01-19T12:34:45;4.00;;;2.13;;
47659;SDS011;33403;43.608;1.458;2023-01-19T12:39:53;6.27;;;2.10;;
47659;SDS011;33403;43.608;1.458;2023-01-19T12:42:19;8.70;;;2.10;;
47659;SDS011;33403;43.608;1.458;2023-01-19T12:44:45;8.13;;;2.20;;
47659;SDS011;33403;43.608;1.458;2023-01-19T12:49:42;6.37;;;1.80;;
47659;SDS011;33403;43.608;1.458;2023-01-19T12:52:10;3.00;;;1.47;;
47659;SDS011;33403;43.608;1.458;2023-01-19T12:54:39;6.90;;;1.83;;
47659;SDS011;33403;43.608;1.458;2023-01-19T12:57:49;7.10;;;1.50;;
47659;SDS011;33403;43.608;1.458;2023-01-19T12:59:56;2.80;;;1.40;;
47659;SDS011;33403;43.608;1.458;2023-01-19T13:13:22;3.80;;;1.60;;
47659;SDS011;33403;43.608;1.458;2023-01-19T13:15:48;5.57;;;1.60;;
47659;SDS011;33403;43.608;1.458;2023-01-19T13:18:18;3.83;;;1.70;;
47659;SDS011;33403;43.608;1.458;2023-01-19T13:20:47;2.70;;;1.50;;
47659;SDS011;33403;43.608;1.458;2023-01-19T13:23:16;2.63;;;1.40;;
47659;SDS011;33403;43.608;1.458;2023-01-19T13:25:46;5.10;;;2.00;;
47659;SDS011;33403;43.608;1.458;2023-01-19T13:28:12;3.97;;;1.50;;
47659;SDS011;33403;43.608;1.458;2023-01-19T13:30:50;6.37;;;1.60;;
47659;SDS011;33403;43.608;1.458;2023-01-19T13:33:24;7.17;;;1.80;;
47659;SDS011;33403;43.608;1.458;2023-01-19T13:35:52;3.17;;;1.73;;
47659;SDS011;33403;43.608;1.458;2023-01-19T13:38:19;3.70;;;1.60;;
47659;SDS011;33403;43.608;1.458;2023-01-19T13:40:46;5.93;;;1.50;;
47659;SDS011;33403;43.608;1.458;2023-01-19T13:43:20;2.93;;;1.80;;
47659;SDS011;33403;43.608;1.458;2023-01-19T13:45:48;6.57;;;2.20;;
47659;SDS011;33403;43.608;1.458;2023-01-19T13:48:16;3.97;;;1.90;;
47659;SDS011;33403;43.608;1.458;2023-01-19T13:50:43;4.37;;;2.00;;
47659;SDS011;33403;43.608;1.458;2023-01-19T13:53:20;5.67;;;2.00;;
47659;SDS011;33403;43.608;1.458;2023-01-19T13:56:04;4.50;;;2.07;;
47659;SDS011;33403;43.608;1.458;2023-01-19T13:58:30;6.63;;;1.80;;
47659;SDS011;33403;43.608;1.458;2023-01-19T14:00:56;4.33;;;1.70;;
47659;SDS011;33403;43.608;1.458;2023-01-19T14:03:22;4.37;;;1.70;;
47659;SDS011;33403;43.608;1.458;2023-01-19T14:05:49;3.37;;;1.70;;
47659;SDS011;33403;43.608;1.458;2023-01-19T14:08:16;4.10;;;1.70;;
47659;SDS011;33403;43.608;1.458;2023-01-19T14:10:44;2.70;;;1.70;;
47659;SDS011;33403;43.608;1.458;2023-01-19T14:13:15;2.57;;;1.70;;
47659;SDS011;33403;43.608;1.458;2023-01-19T14:15:41;4.37;;;2.20;;
47659;SDS011;33403;43.608;1.458;2023-01-19T14:23:34;4.23;;;1.87;;
47659;SDS011;33403;43.608;1.458;2023-01-19T14:26:00;3.63;;;1.80;;
47659;SDS011;33403;43.608;1.458;2023-01-19T14:28:33;4.13;;;1.90;;
47659;SDS011;33403;43.608;1.458;2023-01-19T14:31:01;7.60;;;1.87;;
47659;SDS011;33403;43.608;1.458;2023-01-19T14:33:34;2.97;;;1.80;;
47659;SDS011;33403;43.608;1.458;2023-01-19T14:36:10;6.17;;;2.30;;
47659;SDS011;33403;43.608;1.458;2023-01-19T14:38:45;4.70;;;2.03;;
47659;SDS011;33403;43.608;1.458;2023-01-19T14:41:21;4.20;;;1.70;;
47659;SDS011;33403;43.608;1.458;2023-01-19T14:43:47;3.80;;;1.70;;
47659;SDS011;33403;43.608;1.458;2023-01-19T14:46:16;3.87;;;1.80;;
47659;SDS011;33403;43.608;1.458;2023-01-19T14:48:46;4.67;;;2.10;;
47659;SDS011;33403;43.608;1.458;2023-01-19T14:51:14;3.77;;;1.93;;
47659;SDS011;33403;43.608;1.458;2023-01-19T14:53:44;3.83;;;2.03;;
47659;SDS011;33403;43.608;1.458;2023-01-19T14:56:11;6.77;;;3.10;;
47659;SDS011;33403;43.608;1.458;2023-01-19T14:58:48;8.53;;;4.40;;
47659;SDS011;33403;43.608;1.458;2023-01-19T15:01:14;6.53;;;3.53;;
47659;SDS011;33403;43.608;1.458;2023-01-19T15:03:40;3.33;;;1.80;;
47659;SDS011;33403;43.608;1.458;2023-01-19T15:06:08;4.17;;;2.17;;
47659;SDS011;33403;43.608;1.458;2023-01-19T15:08:35;6.57;;;2.30;;
47659;SDS011;33403;43.608;1.458;2023-01-19T15:11:21;5.97;;;2.47;;
47659;SDS011;33403;43.608;1.458;2023-01-19T15:13:47;4.57;;;1.80;;
47659;SDS011;33403;43.608;1.458;2023-01-19T15:16:13;8.27;;;2.97;;
47659;SDS011;33403;43.608;1.458;2023-01-19T15:18:39;5.23;;;1.90;;
47659;SDS011;33403;43.608;1.458;2023-01-19T15:21:08;4.77;;;2.10;;
47659;SDS011;33403;43.608;1.458;2023-01-19T15:23:37;5.57;;;2.20;;
47659;SDS011;33403;43.608;1.458;2023-01-19T15:26:04;2.97;;;1.93;;
47659;SDS011;33403;43.608;1.458;2023-01-19T15:28:30;3.47;;;1.90;;
47659;SDS011;33403;43.608;1.458;2023-01-19T15:30:56;4.07;;;2.47;;
47659;SDS011;33403;43.608;1.458;2023-01-19T15:33:26;5.13;;;2.10;;
47659;SDS011;33403;43.608;1.458;2023-01-19T15:35:54;6.63;;;2.60;;
47659;SDS011;33403;43.608;1.458;2023-01-19T15:38:20;6.83;;;3.87;;
47659;SDS011;33403;43.608;1.458;2023-01-19T15:40:47;8.40;;;4.60;;
47659;SDS011;33403;43.608;1.458;2023-01-19T15:43:13;5.50;;;3.60;;
47659;SDS011;33403;43.608;1.458;2023-01-19T15:46:01;6.10;;;3.57;;
47659;SDS011;33403;43.608;1.458;2023-01-19T15:48:27;8.23;;;3.90;;
47659;SDS011;33403;43.608;1.458;2023-01-19T15:50:53;7.57;;;3.60;;
47659;SDS011;33403;43.608;1.458;2023-01-19T15:53:20;5.27;;;3.20;;
47659;SDS011;33403;43.608;1.458;2023-01-19T15:55:48;5.43;;;3.10;;
47659;SDS011;33403;43.608;1.458;2023-01-19T15:58:15;4.80;;;2.73;;
47659;SDS011;33403;43.608;1.458;2023-01-19T16:00:41;10.53;;;6.17;;
47659;SDS011;33403;43.608;1.458;2023-01-19T16:03:07;53.50;;;37.20;;
47659;SDS011;33403;43.608;1.458;2023-01-19T16:05:35;63.80;;;40.50;;
47659;SDS011;33403;43.608;1.458;2023-01-19T16:08:01;57.63;;;38.43;;